Time;durP1;ratioP1;P1;durP2;ratioP2;P2;SDS_P1;SDS_P2;PMS_P1;PMS_P2;Temp;Humidity;BMP_temperature;BMP_pressure;BME280_temperature;BME280_humidity;BME280_pressure;Samples;Min_cycle;Max_cycle;Signal;HPM_P1;HPM_P2
2023/06/01 00:01:38;;;;;;;3.80;3.20;;;25.00;62.00;;;;;;4985933;28;20813;-77
2023/06/01 00:04:07;;;;;;;2.87;2.57;;;25.00;62.00;;;;;;5014708;28;20467;-77
2023/06/01 00:06:39;;;;;;;3.03;2.50;;;25.00;61.90;;;;;;5032416;28;20407;-77
2023/06/01 00:09:05;;;;;;;4.00;2.50;;;24.90;61.90;;;;;;5034058;28;20411;-77
2023/06/01 00:11:31;;;;;;;3.40;2.60;;;24.90;61.90;;;;;;5017986;28;20408;-77
2023/06/01 00:13:57;;;;;;;2.97;2.60;;;24.90;62.00;;;;;;5018123;28;20450;-76
2023/06/01 00:16:23;;;;;;;4.93;2.93;;;24.90;62.10;;;;;;4985419;28;20497;-77
2023/06/01 00:18:52;;;;;;;6.10;2.80;;;24.90;62.20;;;;;;5017855;28;20200;-77
2023/06/01 00:21:21;;;;;;;4.07;3.07;;;24.80;62.10;;;;;;5017889;28;20450;-77
2023/06/01 00:23:47;;;;;;;2.60;2.33;;;24.80;62.20;;;;;;5017846;28;20526;-76
2023/06/01 00:26:14;;;;;;;5.23;2.97;;;24.80;62.30;;;;;;5018266;28;20785;-77
2023/06/01 00:28:46;;;;;;;3.10;2.57;;;24.80;62.30;;;;;;5034250;28;20419;-77
2023/06/01 00:31:12;;;;;;;3.70;3.03;;;24.80;62.40;;;;;;5019071;28;20520;-77
2023/06/01 00:33:42;;;;;;;3.13;2.80;;;24.70;62.30;;;;;;5001864;28;20482;-77
2023/06/01 00:36:13;;;;;;;3.53;3.23;;;24.70;62.40;;;;;;5035686;28;20442;-76
2023/06/01 00:38:40;;;;;;;4.50;2.60;;;24.70;62.40;;;;;;5018134;28;20545;-76
2023/06/01 00:41:06;;;;;;;4.30;3.10;;;24.70;62.50;;;;;;5017969;28;20394;-78
2023/06/01 00:43:34;;;;;;;4.90;2.70;;;24.70;62.60;;;;;;5017754;28;20795;-77
2023/06/01 00:46:05;;;;;;;2.63;2.43;;;24.70;62.70;;;;;;5034885;28;20607;-77
2023/06/01 00:48:31;;;;;;;3.53;2.50;;;24.60;62.60;;;;;;5017936;28;20392;-76
2023/06/01 00:50:58;;;;;;;3.70;3.40;;;24.60;62.60;;;;;;5017612;28;20425;-77
2023/06/01 00:53:27;;;;;;;3.83;2.90;;;24.60;62.60;;;;;;5001554;28;20968;-76
2023/06/01 00:55:53;;;;;;;3.10;2.80;;;24.50;62.60;;;;;;5018070;28;20407;-77
2023/06/01 00:58:19;;;;;;;3.17;2.70;;;24.50;62.60;;;;;;5017176;28;20411;-77
2023/06/01 01:00:48;;;;;;;4.10;2.60;;;24.50;62.70;;;;;;5017741;28;20428;-76
2023/06/01 01:03:17;;;;;;;3.17;2.80;;;24.50;62.80;;;;;;5016833;28;20408;-77
2023/06/01 01:05:45;;;;;;;3.20;2.90;;;24.50;63.00;;;;;;5017008;28;20929;-77
2023/06/01 01:08:21;;;;;;;4.00;3.60;;;24.50;63.00;;;;;;5017212;28;20450;-77
2023/06/01 01:10:50;;;;;;;4.93;3.43;;;24.50;63.00;;;;;;5034740;28;20410;-77
2023/06/01 01:13:18;;;;;;;6.23;3.13;;;24.40;62.90;;;;;;5000981;28;20434;-77
2023/06/01 01:16:12;;;;;;;3.63;3.33;;;24.40;63.10;;;;;;5016853;28;20457;-77
2023/06/01 01:19:21;;;;;;;5.13;3.23;;;24.40;63.10;;;;;;5000479;28;20443;-77
2023/06/01 01:22:19;;;;;;;4.93;3.40;;;24.40;63.10;;;;;;5009949;28;20801;-77
2023/06/01 01:25:12;;;;;;;3.90;3.50;;;24.40;63.30;;;;;;5000350;28;20448;-77
2023/06/01 01:28:07;;;;;;;4.60;3.63;;;24.30;63.20;;;;;;5000721;28;20431;-77
2023/06/01 01:30:37;;;;;;;3.73;3.13;;;24.30;63.30;;;;;;5001023;28;20432;-77
2023/06/01 01:33:04;;;;;;;6.90;3.70;;;24.30;63.40;;;;;;5001064;28;20815;-77
2023/06/01 01:35:33;;;;;;;3.77;3.00;;;24.20;63.30;;;;;;5017116;28;20423;-77
2023/06/01 01:37:59;;;;;;;6.07;3.50;;;24.20;63.30;;;;;;4999907;28;20493;-77
2023/06/01 01:40:27;;;;;;;6.43;3.50;;;24.20;63.40;;;;;;5000265;28;20404;-77
2023/06/01 01:42:54;;;;;;;5.30;3.17;;;24.20;63.40;;;;;;5016253;28;20400;-77
2023/06/01 01:45:23;;;;;;;5.93;3.93;;;24.20;63.50;;;;;;5016393;28;20439;-77
2023/06/01 01:48:08;;;;;;;5.50;3.23;;;24.10;63.40;;;;;;5000275;28;20491;-77
2023/06/01 01:50:44;;;;;;;4.77;3.10;;;24.10;63.50;;;;;;5016758;28;20411;-77
2023/06/01 01:53:11;;;;;;;3.37;3.07;;;24.10;63.50;;;;;;4999313;28;20469;-77
2023/06/01 01:55:39;;;;;;;6.83;3.40;;;24.10;63.60;;;;;;5000296;28;21070;-76
2023/06/01 01:58:06;;;;;;;4.37;3.73;;;24.10;63.60;;;;;;5016360;28;20451;-77
2023/06/01 02:00:32;;;;;;;4.00;3.27;;;24.00;63.60;;;;;;5016410;28;20415;-76
2023/06/01 02:03:04;;;;;;;3.97;3.30;;;24.00;63.60;;;;;;5033286;28;20412;-76
2023/06/01 02:05:30;;;;;;;5.10;3.60;;;24.00;63.70;;;;;;5015598;28;20462;-76
2023/06/01 02:07:56;;;;;;;4.03;3.57;;;24.00;63.70;;;;;;5015752;28;20403;-76
2023/06/01 02:10:22;;;;;;;4.50;3.57;;;24.00;63.80;;;;;;4999043;28;20804;-77
2023/06/01 02:12:48;;;;;;;3.63;3.20;;;24.00;63.80;;;;;;5015676;28;20492;-77
2023/06/01 02:15:15;;;;;;;6.60;3.83;;;23.90;63.80;;;;;;4999595;28;20471;-77
2023/06/01 02:17:41;;;;;;;4.53;4.00;;;23.90;63.80;;;;;;4999317;28;20204;-77
2023/06/01 02:20:08;;;;;;;4.17;3.70;;;23.90;63.90;;;;;;4999294;28;20773;-77
2023/06/01 02:22:37;;;;;;;4.67;3.60;;;23.90;63.90;;;;;;4983144;28;20442;-76
2023/06/01 02:25:06;;;;;;;6.87;4.27;;;23.80;63.90;;;;;;5015086;28;20546;-76
2023/06/01 02:27:34;;;;;;;6.20;3.73;;;23.80;63.90;;;;;;5015469;28;20956;-77
2023/06/01 02:30:06;;;;;;;4.17;3.77;;;23.80;63.90;;;;;;5033033;28;20442;-77
2023/06/01 02:32:34;;;;;;;5.67;4.20;;;23.80;63.90;;;;;;4982800;28;20470;-77
2023/06/01 02:35:01;;;;;;;6.43;4.00;;;23.80;64.10;;;;;;5015439;28;20434;-76
2023/06/01 02:37:29;;;;;;;4.53;4.07;;;23.70;63.90;;;;;;5032924;28;20439;-77
2023/06/01 02:39:55;;;;;;;4.67;3.73;;;23.70;64.00;;;;;;4999243;28;20891;-77
2023/06/01 02:42:21;;;;;;;5.63;4.00;;;23.70;64.00;;;;;;5015362;28;20513;-77
2023/06/01 02:44:52;;;;;;;6.03;4.30;;;23.70;64.20;;;;;;4998799;28;20482;-77
2023/06/01 02:47:18;;;;;;;6.40;4.53;;;23.70;64.20;;;;;;5015406;28;20412;-77
2023/06/01 02:49:44;;;;;;;5.23;3.87;;;23.70;64.20;;;;;;5015114;28;20812;-77
2023/06/01 02:52:10;;;;;;;5.13;4.00;;;23.60;64.20;;;;;;5015354;28;20510;-77
2023/06/01 02:54:36;;;;;;;8.20;4.60;;;23.60;64.30;;;;;;4999085;28;20790;-77
2023/06/01 02:57:23;;;;;;;6.00;3.87;;;23.60;64.30;;;;;;5016053;28;20463;-77
2023/06/01 02:59:57;;;;;;;6.10;3.90;;;23.50;64.20;;;;;;4999864;28;20814;-77
2023/06/01 03:02:26;;;;;;;5.10;4.27;;;23.50;64.20;;;;;;5015577;28;20455;-77
2023/06/01 03:04:52;;;;;;;5.23;4.30;;;23.50;64.20;;;;;;4999240;28;20486;-77
2023/06/01 03:07:22;;;;;;;4.87;4.43;;;23.50;64.30;;;;;;4997903;28;21030;-77
2023/06/01 03:09:51;;;;;;;6.27;4.23;;;23.50;64.60;;;;;;4999277;28;20912;-77
2023/06/01 03:12:19;;;;;;;6.03;4.10;;;23.40;64.30;;;;;;5015313;28;20458;-77
2023/06/01 03:14:45;;;;;;;6.07;5.10;;;23.40;64.30;;;;;;5015174;28;20510;-77
2023/06/01 03:17:11;;;;;;;5.77;4.60;;;23.40;64.30;;;;;;4998694;28;20574;-77
2023/06/01 03:19:37;;;;;;;6.23;4.33;;;23.40;64.40;;;;;;4998996;28;20411;-77
2023/06/01 03:22:17;;;;;;;5.60;4.37;;;23.30;64.20;;;;;;5015163;28;20498;-77
2023/06/01 03:24:44;;;;;;;6.33;4.23;;;23.30;64.30;;;;;;5014481;28;20446;-77
2023/06/01 03:27:13;;;;;;;5.03;4.53;;;23.30;64.30;;;;;;4999357;28;20410;-77
2023/06/01 03:29:39;;;;;;;5.43;4.93;;;23.30;64.40;;;;;;4998750;28;20435;-77
2023/06/01 03:32:09;;;;;;;6.00;5.40;;;23.30;64.30;;;;;;5015458;28;20431;-77
2023/06/01 03:34:36;;;;;;;8.57;5.10;;;23.20;64.30;;;;;;4999542;28;20442;-76
2023/06/01 03:37:04;;;;;;;5.40;4.87;;;23.20;64.30;;;;;;4998850;28;21035;-78
2023/06/01 03:39:36;;;;;;;6.50;5.70;;;23.20;64.40;;;;;;5000617;28;20408;-79
2023/06/01 03:42:06;;;;;;;5.50;4.90;;;23.20;64.40;;;;;;5003211;28;20443;-79
2023/06/01 03:44:37;;;;;;;6.40;5.77;;;23.10;64.30;;;;;;5022395;28;20443;-79
2023/06/01 03:47:06;;;;;;;7.80;6.90;;;23.10;64.40;;;;;;5022290;28;20400;-79
2023/06/01 03:49:34;;;;;;;7.37;6.67;;;23.10;64.40;;;;;;5022366;28;20388;-79
2023/06/01 03:52:06;;;;;;;8.80;7.60;;;23.10;64.40;;;;;;5022521;28;20407;-79
2023/06/01 03:54:35;;;;;;;10.57;8.23;;;23.00;64.30;;;;;;5021641;28;20431;-80
2023/06/01 03:57:02;;;;;;;10.30;8.87;;;23.00;64.40;;;;;;5005803;28;20466;-80
2023/06/01 03:59:30;;;;;;;11.80;10.00;;;23.00;64.40;;;;;;5021881;28;20406;-79
2023/06/01 04:01:59;;;;;;;13.93;10.00;;;23.00;64.40;;;;;;5039809;28;20897;-79
2023/06/01 04:04:29;;;;;;;16.23;10.30;;;22.90;64.40;;;;;;4989635;28;20471;-79
2023/06/01 04:07:02;;;;;;;16.23;12.67;;;22.90;64.40;;;;;;5039155;28;20415;-79
2023/06/01 04:09:29;;;;;;;14.70;13.07;;;22.90;64.50;;;;;;5005612;28;20457;-79
2023/06/01 04:11:55;;;;;;;18.80;14.30;;;22.90;64.60;;;;;;5005237;28;20534;-79
2023/06/01 04:14:21;;;;;;;18.40;14.73;;;22.80;64.40;;;;;;5021504;28;20442;-79
2023/06/01 04:16:47;;;;;;;18.10;14.60;;;22.80;64.50;;;;;;5005577;28;20941;-79
2023/06/01 04:19:13;;;;;;;21.67;16.33;;;22.80;64.50;;;;;;5005531;28;20426;-80
2023/06/01 04:21:43;;;;;;;20.30;17.50;;;22.80;64.50;;;;;;4989439;28;20185;-80
2023/06/01 04:24:11;;;;;;;19.40;16.90;;;22.80;64.50;;;;;;5004855;28;20807;-79
2023/06/01 04:26:37;;;;;;;25.43;18.93;;;22.70;64.60;;;;;;5005613;28;20492;-79
2023/06/01 04:29:05;;;;;;;19.97;16.93;;;22.70;64.60;;;;;;5021340;28;20408;-78
2023/06/01 04:31:36;;;;;;;23.77;18.53;;;22.70;64.60;;;;;;5005306;28;20471;-79
2023/06/01 04:34:02;;;;;;;23.40;18.90;;;22.70;64.60;;;;;;5004815;28;20796;-80
2023/06/01 04:36:30;;;;;;;22.80;19.60;;;22.70;64.60;;;;;;5020809;28;20873;-79
2023/06/01 04:38:58;;;;;;;24.57;20.23;;;22.60;64.60;;;;;;5004906;28;20419;-79
2023/06/01 04:41:28;;;;;;;23.63;20.17;;;22.60;64.60;;;;;;5021353;28;20882;-79
2023/06/01 04:43:58;;;;;;;25.70;20.90;;;22.60;64.60;;;;;;5004841;28;20435;-79
2023/06/01 04:46:26;;;;;;;22.90;20.37;;;22.60;64.70;;;;;;4988307;28;20454;-79
2023/06/01 04:48:57;;;;;;;23.20;20.60;;;22.60;64.80;;;;;;5020910;28;20409;-79
2023/06/01 04:51:23;;;;;;;27.00;21.67;;;22.50;64.60;;;;;;5004836;28;20427;-79
2023/06/01 04:53:51;;;;;;;26.27;21.40;;;22.50;64.60;;;;;;5037721;28;20470;-79
2023/06/01 04:56:26;;;;;;;27.03;23.70;;;22.50;64.70;;;;;;5003706;28;20497;-79
2023/06/01 04:58:56;;;;;;;25.63;22.50;;;22.50;64.60;;;;;;5020881;28;20435;-79
2023/06/01 05:01:29;;;;;;;28.23;23.60;;;22.50;64.60;;;;;;5004043;28;20436;-80
2023/06/01 05:03:58;;;;;;;29.00;24.00;;;22.40;64.60;;;;;;5020533;28;20455;-79
2023/06/01 05:06:25;;;;;;;28.80;23.87;;;22.40;64.60;;;;;;5020358;28;20518;-79
2023/06/01 05:08:51;;;;;;;26.17;23.40;;;22.40;64.60;;;;;;5020245;28;20408;-79
2023/06/01 05:11:21;;;;;;;24.53;21.93;;;22.40;64.50;;;;;;5003924;28;20428;-79
2023/06/01 05:13:47;;;;;;;26.93;23.20;;;22.30;64.50;;;;;;5003979;28;20960;-79
2023/06/01 05:16:18;;;;;;;25.20;22.43;;;22.30;64.50;;;;;;5020135;28;20400;-79
2023/06/01 05:18:44;;;;;;;29.73;24.40;;;22.30;64.60;;;;;;4987743;28;20431;-79
2023/06/01 05:21:12;;;;;;;25.73;22.70;;;22.30;64.50;;;;;;4988181;28;20790;-79
2023/06/01 05:23:41;;;;;;;24.83;22.20;;;22.30;64.60;;;;;;5004475;28;20443;-79
2023/06/01 05:26:07;;;;;;;24.30;21.70;;;22.30;64.60;;;;;;4987982;28;20420;-79
2023/06/01 05:28:35;;;;;;;25.20;22.50;;;22.30;64.60;;;;;;4988183;28;20466;-79
2023/06/01 05:31:02;;;;;;;24.10;21.60;;;22.20;64.50;;;;;;4987409;28;20519;-80
2023/06/01 05:33:31;;;;;;;25.13;22.53;;;22.20;64.50;;;;;;5004489;28;20845;-78
2023/06/01 05:36:02;;;;;;;24.60;22.10;;;22.20;64.50;;;;;;5019883;28;20815;-79
2023/06/01 05:38:31;;;;;;;25.53;22.83;;;22.20;64.50;;;;;;5019940;28;20451;-79
2023/06/01 05:40:57;;;;;;;27.53;23.07;;;22.20;64.50;;;;;;4976352;28;20857;-79
2023/06/01 05:43:24;;;;;;;30.17;25.33;;;22.10;64.40;;;;;;4999483;28;20426;-79
2023/06/01 05:45:51;;;;;;;29.43;25.83;;;22.10;64.40;;;;;;4986893;28;20434;-79
2023/06/01 05:48:18;;;;;;;27.57;24.03;;;22.10;64.40;;;;;;5003288;28;20515;-79
2023/06/01 05:50:48;;;;;;;25.77;23.07;;;22.10;64.40;;;;;;4987529;28;20447;-78
2023/06/01 05:53:19;;;;;;;27.60;24.70;;;22.10;64.40;;;;;;5003134;28;20423;-80
2023/06/01 05:55:50;;;;;;;28.30;25.17;;;22.10;64.40;;;;;;5003083;28;20817;-79
2023/06/01 05:58:18;;;;;;;31.77;26.57;;;22.10;64.30;;;;;;5003190;28;20832;-79
2023/06/01 06:00:47;;;;;;;28.37;25.37;;;22.00;64.20;;;;;;5013589;28;20417;-79
2023/06/01 06:03:16;;;;;;;30.47;26.80;;;22.00;64.30;;;;;;4999157;28;20873;-79
2023/06/01 06:05:49;;;;;;;28.43;25.53;;;22.00;64.30;;;;;;4983451;28;20499;-79
2023/06/01 06:08:15;;;;;;;29.17;26.00;;;22.00;64.30;;;;;;5000131;28;20409;-79
2023/06/01 06:10:43;;;;;;;28.80;25.67;;;22.00;64.30;;;;;;5016839;28;20415;-79
2023/06/01 06:13:10;;;;;;;29.50;26.20;;;22.00;64.20;;;;;;4983272;28;20432;-79
2023/06/01 06:15:38;;;;;;;29.33;25.47;;;21.90;64.20;;;;;;4983217;28;20991;-79
2023/06/01 06:18:07;;;;;;;29.37;25.97;;;21.90;64.10;;;;;;4999423;28;20919;-79
2023/06/01 06:20:33;;;;;;;27.77;24.77;;;21.90;64.10;;;;;;4983101;28;20428;-79
2023/06/01 06:22:59;;;;;;;28.20;25.20;;;21.90;64.10;;;;;;4983070;28;20169;-79
2023/06/01 06:25:27;;;;;;;28.77;25.73;;;21.90;64.00;;;;;;4999260;28;20519;-79
2023/06/01 06:27:53;;;;;;;28.00;23.80;;;21.90;64.00;;;;;;4983251;28;20188;-79
2023/06/01 06:30:25;;;;;;;25.93;23.27;;;21.90;64.00;;;;;;4998953;28;20440;-79
2023/06/01 06:32:51;;;;;;;28.10;25.20;;;21.80;63.90;;;;;;4999110;28;20463;-79
2023/06/01 06:35:19;;;;;;;26.40;23.60;;;21.80;63.90;;;;;;4999436;28;20440;-79
2023/06/01 06:37:45;;;;;;;26.07;23.43;;;21.80;63.80;;;;;;4982791;28;20466;-79
2023/06/01 06:40:17;;;;;;;27.30;24.50;;;21.80;63.90;;;;;;4999092;28;20421;-79
2023/06/01 06:42:47;;;;;;;26.40;23.70;;;21.80;63.80;;;;;;4998922;28;20507;-79
2023/06/01 06:45:13;;;;;;;27.43;24.60;;;21.80;63.80;;;;;;4982755;28;20926;-79
2023/06/01 06:47:41;;;;;;;26.87;23.80;;;21.80;63.80;;;;;;4999302;28;20905;-79
2023/06/01 06:50:08;;;;;;;27.30;24.50;;;21.80;63.80;;;;;;4998600;28;20930;-79
2023/06/01 06:52:34;;;;;;;26.87;24.07;;;21.80;63.80;;;;;;4982535;28;20440;-77
2023/06/01 06:55:00;;;;;;;27.57;24.80;;;21.80;63.80;;;;;;5016599;28;20440;-78
2023/06/01 06:57:28;;;;;;;27.23;24.67;;;21.70;63.70;;;;;;4998670;28;20269;-79
2023/06/01 06:59:54;;;;;;;26.87;24.17;;;21.70;63.70;;;;;;4990551;28;20420;-79
2023/06/01 07:02:20;;;;;;;28.00;24.70;;;21.70;63.60;;;;;;5016662;28;20407;-80
2023/06/01 07:04:46;;;;;;;26.70;23.97;;;21.70;63.70;;;;;;4998845;28;20448;-80
2023/06/01 07:07:14;;;;;;;27.37;23.60;;;21.70;63.70;;;;;;4982762;28;20412;-78
2023/06/01 07:09:46;;;;;;;26.50;23.80;;;21.70;63.60;;;;;;4998524;28;20849;-79
2023/06/01 07:12:14;;;;;;;26.80;24.03;;;21.70;63.70;;;;;;4998510;28;20435;-79
2023/06/01 07:14:42;;;;;;;28.37;25.03;;;21.70;63.60;;;;;;4998458;28;20521;-79
2023/06/01 07:17:09;;;;;;;27.70;24.70;;;21.70;63.60;;;;;;4983103;28;20456;-79
2023/06/01 07:19:35;;;;;;;28.00;25.00;;;21.70;63.60;;;;;;5002998;28;20956;-79
2023/06/01 07:22:01;;;;;;;29.27;26.27;;;21.70;63.60;;;;;;5020927;28;20401;-79
2023/06/01 07:24:29;;;;;;;29.23;26.30;;;21.70;63.60;;;;;;4986362;28;20463;-79
2023/06/01 07:26:58;;;;;;;27.40;24.50;;;21.70;63.60;;;;;;4970214;28;20466;-79
2023/06/01 07:29:27;;;;;;;27.63;24.73;;;21.70;63.70;;;;;;5018791;28;20408;-80
2023/06/01 07:31:55;;;;;;;30.17;26.23;;;21.70;63.60;;;;;;5001973;28;20484;-80
2023/06/01 07:34:22;;;;;;;28.80;25.90;;;21.70;63.60;;;;;;5019860;28;20475;-79
2023/06/01 07:36:50;;;;;;;32.20;27.13;;;21.70;63.60;;;;;;4985967;28;20460;-80
2023/06/01 07:39:19;;;;;;;30.10;26.87;;;21.70;63.60;;;;;;5018512;28;20405;-80
2023/06/01 07:41:50;;;;;;;30.37;27.10;;;21.70;63.60;;;;;;5018409;28;20954;-80
2023/06/01 07:44:18;;;;;;;30.30;27.00;;;21.70;64.40;;;;;;4985816;28;20451;-77
2023/06/01 07:46:47;;;;;;;29.87;26.67;;;21.70;63.60;;;;;;5001635;28;20427;-79
2023/06/01 07:49:15;;;;;;;31.27;26.10;;;21.60;63.40;;;;;;5001936;28;20417;-79
2023/06/01 07:51:42;;;;;;;28.03;24.97;;;21.70;63.60;;;;;;4985964;28;20937;-79
2023/06/01 07:54:09;;;;;;;29.23;25.73;;;21.70;63.50;;;;;;5001931;28;20604;-79
2023/06/01 07:56:37;;;;;;;29.70;26.60;;;21.70;63.60;;;;;;5001909;28;20459;-79
2023/06/01 07:59:08;;;;;;;28.83;25.73;;;21.70;63.60;;;;;;5019156;28;20396;-79
2023/06/01 08:01:34;;;;;;;26.73;23.93;;;21.70;63.50;;;;;;5017677;28;20439;-79
2023/06/01 08:04:02;;;;;;;28.30;25.20;;;21.70;63.50;;;;;;5001358;28;20451;-80
2023/06/01 08:06:35;;;;;;;28.37;25.37;;;21.70;63.50;;;;;;4985833;28;20439;-79
2023/06/01 08:09:02;;;;;;;27.47;24.50;;;21.70;63.50;;;;;;5001516;28;20452;-79
2023/06/01 08:11:28;;;;;;;27.83;24.83;;;21.70;63.50;;;;;;4985316;28;20454;-79
2023/06/01 08:13:55;;;;;;;30.13;27.03;;;21.70;63.50;;;;;;5001334;28;20447;-79
2023/06/01 08:16:25;;;;;;;28.53;24.60;;;21.70;63.40;;;;;;4969489;28;20256;-79
2023/06/01 08:18:56;;;;;;;28.60;25.30;;;21.70;63.40;;;;;;5002264;28;20401;-79
2023/06/01 08:21:31;;;;;;;26.97;24.10;;;21.70;63.40;;;;;;5001685;28;20482;-79
2023/06/01 08:24:01;;;;;;;28.47;25.47;;;21.70;63.40;;;;;;5001402;28;20953;-78
2023/06/01 08:26:30;;;;;;;29.67;26.50;;;21.80;63.50;;;;;;5001499;28;20416;-79
2023/06/01 08:28:58;;;;;;;28.37;25.30;;;21.70;63.30;;;;;;5000182;28;20422;-79
2023/06/01 08:31:27;;;;;;;26.13;23.47;;;21.80;63.40;;;;;;5001599;28;20421;-79
2023/06/01 08:33:53;;;;;;;26.03;23.17;;;21.70;63.30;;;;;;5001227;28;20448;-79
2023/06/01 08:36:22;;;;;;;25.67;22.97;;;21.70;63.30;;;;;;5001021;28;20488;-78
2023/06/01 08:38:51;;;;;;;28.50;25.50;;;21.80;63.40;;;;;;4985010;28;20485;-79
2023/06/01 08:41:37;;;;;;;25.67;22.87;;;21.80;63.30;;;;;;4984920;28;20402;-79
2023/06/01 08:44:05;;;;;;;26.10;23.37;;;21.80;63.30;;;;;;5017413;28;20440;-79
2023/06/01 08:46:34;;;;;;;25.53;22.77;;;21.80;63.40;;;;;;4985559;28;20926;-79
2023/06/01 08:49:08;;;;;;;32.43;23.20;;;21.80;63.20;;;;;;5004418;28;20450;-73
2023/06/01 08:51:38;;;;;;;24.50;22.00;;;21.90;63.40;;;;;;5025806;28;20431;-73
2023/06/01 08:54:09;;;;;;;27.63;23.17;;;21.90;63.40;;;;;;5014587;28;20455;-73
2023/06/01 08:56:37;;;;;;;25.43;22.70;;;21.90;63.40;;;;;;4996665;28;20455;-73
2023/06/01 08:59:08;;;;;;;26.53;23.50;;;21.90;63.30;;;;;;4980610;28;20428;-72
2023/06/01 09:01:34;;;;;;;25.13;22.03;;;21.90;63.30;;;;;;5008630;28;20462;-73
2023/06/01 09:04:02;;;;;;;22.53;20.13;;;21.90;63.20;;;;;;5000083;28;20557;-73
2023/06/01 09:06:31;;;;;;;24.43;21.83;;;22.00;63.30;;;;;;4999617;28;20889;-73
2023/06/01 09:08:57;;;;;;;24.07;21.57;;;22.00;63.20;;;;;;5000308;28;20458;-73
2023/06/01 09:11:28;;;;;;;24.33;21.67;;;21.90;63.10;;;;;;4999994;28;20495;-73
2023/06/01 09:13:54;;;;;;;23.33;20.90;;;22.00;63.30;;;;;;5033667;28;20769;-73
2023/06/01 09:16:36;;;;;;;21.83;19.53;;;22.00;63.30;;;;;;5010286;28;20452;-72
2023/06/01 09:19:10;;;;;;;24.90;19.63;;;22.00;63.20;;;;;;5024337;28;20801;-72
2023/06/01 09:21:38;;;;;;;23.20;20.60;;;22.00;63.10;;;;;;5022522;28;20522;-72
2023/06/01 09:24:19;;;;;;;23.17;17.90;;;22.00;63.00;;;;;;5009386;28;20987;-72
2023/06/01 09:26:51;;;;;;;20.03;18.00;;;22.10;63.00;;;;;;5029114;28;20438;-75
2023/06/01 09:29:19;;;;;;;17.63;15.40;;;22.10;63.00;;;;;;5016559;28;20749;-71
2023/06/01 09:31:47;;;;;;;17.23;15.37;;;22.10;62.90;;;;;;5031722;28;20517;-75
2023/06/01 09:34:20;;;;;;;19.53;17.13;;;22.20;62.80;;;;;;5002109;28;20866;-73
2023/06/01 09:36:55;;;;;;;17.10;15.30;;;22.10;62.70;;;;;;5016053;28;21019;-73
2023/06/01 09:39:25;;;;;;;18.57;14.27;;;22.20;62.80;;;;;;5033113;28;20936;-72
2023/06/01 09:41:58;;;;;;;15.87;14.17;;;22.20;62.70;;;;;;4987777;28;20527;-71
2023/06/01 09:44:32;;;;;;;16.20;14.07;;;22.20;62.60;;;;;;5029662;28;20463;-72
2023/06/01 09:47:01;;;;;;;15.03;13.53;;;22.20;62.60;;;;;;5033987;28;20795;-72
2023/06/01 09:49:32;;;;;;;15.07;13.53;;;22.30;62.70;;;;;;5016244;28;20857;-71
2023/06/01 09:52:07;;;;;;;14.97;12.27;;;22.30;62.70;;;;;;5000111;28;21010;-72
2023/06/01 09:54:34;;;;;;;14.10;12.60;;;22.30;62.50;;;;;;5030165;28;20466;-72
2023/06/01 09:57:02;;;;;;;12.70;11.40;;;22.30;62.30;;;;;;5033920;28;20509;-72
2023/06/01 09:59:37;;;;;;;14.03;12.50;;;22.40;62.40;;;;;;4993492;28;20439;-72
2023/06/01 10:02:04;;;;;;;12.07;10.77;;;22.40;62.30;;;;;;4996683;28;20416;-72
2023/06/01 10:04:39;;;;;;;12.23;11.03;;;22.50;62.30;;;;;;4980312;28;20456;-71
2023/06/01 10:07:11;;;;;;;12.90;11.20;;;22.50;62.20;;;;;;4996434;28;20493;-72
2023/06/01 10:09:38;;;;;;;11.63;10.30;;;22.50;62.20;;;;;;4995047;28;20445;-71
2023/06/01 10:12:07;;;;;;;12.27;10.40;;;22.50;62.00;;;;;;4983468;28;20810;-71
2023/06/01 10:14:36;;;;;;;12.03;10.70;;;22.50;62.10;;;;;;5033268;28;20451;-71
2023/06/01 10:17:05;;;;;;;10.70;9.50;;;22.60;62.00;;;;;;5033315;28;20504;-71
2023/06/01 10:19:32;;;;;;;11.50;10.07;;;22.60;61.90;;;;;;5033243;28;20400;-71
2023/06/01 10:22:00;;;;;;;12.53;10.10;;;22.60;61.90;;;;;;5015537;28;20431;-72
2023/06/01 10:24:28;;;;;;;11.67;9.20;;;22.70;61.80;;;;;;5033124;28;20443;-71
2023/06/01 10:27:26;;;;;;;10.17;8.33;;;22.70;61.60;;;;;;5015488;28;20440;-72
2023/06/01 10:29:57;;;;;;;10.73;8.83;;;22.80;61.70;;;;;;4996091;28;20440;-71
2023/06/01 10:32:45;;;;;;;14.20;9.63;;;22.80;62.60;;;;;;5017292;28;20764;-71
2023/06/01 10:35:32;;;;;;;8.70;7.90;;;22.80;61.90;;;;;;4989321;28;20898;-71
2023/06/01 10:38:07;;;;;;;11.73;8.00;;;22.90;61.90;;;;;;5031551;28;20934;-71
2023/06/01 10:40:34;;;;;;;8.93;7.93;;;22.90;61.80;;;;;;5015402;28;20841;-71
2023/06/01 10:43:02;;;;;;;9.63;8.07;;;23.00;61.90;;;;;;5015338;28;20454;-71
2023/06/01 10:45:39;;;;;;;8.63;7.73;;;23.00;62.00;;;;;;5032878;28;20484;-71
2023/06/01 10:48:07;;;;;;;8.70;6.83;;;23.00;61.90;;;;;;5032803;28;20447;-72
2023/06/01 10:50:35;;;;;;;8.10;7.30;;;23.00;61.80;;;;;;5013000;28;20421;-72
2023/06/01 10:53:30;;;;;;;9.23;7.90;;;23.10;61.80;;;;;;5002633;28;20805;-72
2023/06/01 10:56:23;;;;;;;8.60;7.80;;;23.10;61.60;;;;;;4978177;28;20424;-72
2023/06/01 10:59:09;;;;;;;8.97;6.50;;;23.10;61.40;;;;;;5028833;28;20489;-72
2023/06/01 11:01:43;;;;;;;10.97;7.50;;;23.20;61.50;;;;;;5023855;28;20404;-72
2023/06/01 11:04:13;;;;;;;8.20;7.00;;;23.20;61.50;;;;;;4978702;28;20459;-73
2023/06/01 11:06:45;;;;;;;9.00;7.50;;;23.20;61.40;;;;;;4991057;28;20432;-76
2023/06/01 11:09:16;;;;;;;9.13;7.23;;;23.30;61.60;;;;;;5016928;28;20475;-76
2023/06/01 11:11:48;;;;;;;10.47;7.37;;;23.30;61.50;;;;;;5005196;28;20909;-73
2023/06/01 11:14:15;;;;;;;8.43;7.30;;;23.30;61.40;;;;;;5031041;28;20485;-72
2023/06/01 11:16:47;;;;;;;8.37;6.80;;;23.40;61.50;;;;;;4985629;28;20514;-73
2023/06/01 11:19:31;;;;;;;7.07;6.40;;;23.40;61.30;;;;;;5030992;28;20412;-73
2023/06/01 11:22:01;;;;;;;8.20;7.30;;;23.40;61.30;;;;;;5014444;28;20403;-73
2023/06/01 11:24:37;;;;;;;7.43;6.60;;;23.50;61.30;;;;;;5031050;28;20459;-73
2023/06/01 11:27:08;;;;;;;9.30;7.03;;;23.50;61.30;;;;;;4979669;28;20820;-72
2023/06/01 11:29:34;;;;;;;7.70;6.80;;;23.50;61.10;;;;;;4989689;28;20435;-72
2023/06/01 11:32:07;;;;;;;11.10;7.60;;;23.60;61.10;;;;;;4982443;28;20432;-72
2023/06/01 11:34:45;;;;;;;11.20;7.10;;;23.60;61.00;;;;;;5030913;28;20561;-73
2023/06/01 11:37:18;;;;;;;9.47;5.77;;;23.70;60.90;;;;;;5014238;28;20964;-72
2023/06/01 11:39:47;;;;;;;10.73;7.27;;;23.70;60.80;;;;;;5030754;28;20423;-72
2023/06/01 11:42:15;;;;;;;8.30;6.83;;;23.70;60.90;;;;;;5014281;28;20485;-72
2023/06/01 11:45:04;;;;;;;7.77;6.30;;;23.70;61.00;;;;;;4997975;28;20444;-73
2023/06/01 11:47:31;;;;;;;6.70;6.00;;;23.80;61.00;;;;;;5010480;28;20487;-72
2023/06/01 11:49:57;;;;;;;12.70;6.87;;;23.80;60.90;;;;;;4992766;28;20426;-75
2023/06/01 11:52:23;;;;;;;7.87;6.40;;;23.90;61.00;;;;;;5014542;28;20522;-75
2023/06/01 11:54:54;;;;;;;8.23;6.50;;;23.90;60.90;;;;;;5008438;28;20853;-75
2023/06/01 11:57:20;;;;;;;8.83;6.83;;;23.90;60.90;;;;;;4983307;28;20463;-75
2023/06/01 11:59:50;;;;;;;7.07;5.73;;;23.90;60.70;;;;;;4991341;28;20444;-75
2023/06/01 12:02:26;;;;;;;7.77;6.40;;;23.90;60.60;;;;;;5021840;28;20454;-75
2023/06/01 12:05:06;;;;;;;7.47;6.70;;;24.00;60.70;;;;;;5012883;28;20436;-75
2023/06/01 12:07:52;;;;;;;9.00;7.20;;;24.00;60.60;;;;;;5004968;28;20451;-75
2023/06/01 12:10:19;;;;;;;7.23;5.90;;;24.10;60.40;;;;;;5013929;28;20440;-75
2023/06/01 12:12:46;;;;;;;8.60;6.73;;;24.10;60.20;;;;;;5002275;28;20436;-75
2023/06/01 12:15:18;;;;;;;7.40;6.37;;;24.10;60.00;;;;;;4983805;28;20467;-75
2023/06/01 12:17:49;;;;;;;9.00;6.20;;;24.20;60.00;;;;;;4986409;28;20447;-76
2023/06/01 12:20:35;;;;;;;8.17;6.23;;;24.20;59.90;;;;;;5029783;28;20937;-76
2023/06/01 12:23:24;;;;;;;10.63;6.37;;;24.20;59.80;;;;;;5008991;28;20440;-74
2023/06/01 12:25:53;;;;;;;8.90;7.00;;;24.20;59.70;;;;;;4999374;28;20446;-75
2023/06/01 12:28:21;;;;;;;10.13;6.03;;;24.30;59.70;;;;;;5034617;28;20399;-75
2023/06/01 12:30:48;;;;;;;9.67;7.00;;;24.30;59.70;;;;;;5020014;28;20543;-75
2023/06/01 12:33:35;;;;;;;8.43;6.93;;;24.30;59.60;;;;;;4998975;28;20436;-75
2023/06/01 12:36:06;;;;;;;15.57;8.97;;;24.40;59.70;;;;;;5013888;28;20467;-76
2023/06/01 12:38:52;;;;;;;10.40;6.50;;;24.30;58.80;;;;;;5007696;28;20452;-75
2023/06/01 12:41:19;;;;;;;9.10;6.40;;;24.30;59.20;;;;;;4988611;28;20433;-76
2023/06/01 12:43:50;;;;;;;11.47;7.27;;;24.30;59.40;;;;;;5009540;28;20649;-76
2023/06/01 12:46:26;;;;;;;8.23;6.57;;;24.30;59.50;;;;;;5021555;28;20432;-76
2023/06/01 12:49:14;;;;;;;10.10;6.00;;;24.30;59.60;;;;;;5028541;28;20988;-76
2023/06/01 12:51:42;;;;;;;6.70;5.80;;;24.40;59.60;;;;;;5016295;28;20477;-76